Terminal Aerodrome Forecast
Issued by NWS Sioux Falls, SD

Home | Current Version | Previous Version | Text Only | Print | Product List | Glossary On
Versions: 1 2 3 4 5 6 7 8 9 10 11 12 13 14 15 16
000
FTUS43 KFSD 191127
TAFFSD
TAF
KFSD 191127Z 1912/2012 19013KT P6SM BKN200 WS013/23044KT
     FM191300 21010KT P6SM BKN200
     FM191900 28011KT P6SM SKC
     FM192300 34005KT P6SM SKC=

USA.gov is the U.S. government's official web portal to all federal, state and local government web resources and services.